sensor_id;sensor_type;location;lat;lon;timestamp;temperature;humidity
16846;DHT22;8539;53.188;8.696;2023-03-01T00:01:20;-3.00;99.90
16846;DHT22;8539;53.188;8.696;2023-03-01T00:03:47;-3.00;99.90
16846;DHT22;8539;53.188;8.696;2023-03-01T00:06:14;-3.00;99.90
16846;DHT22;8539;53.188;8.696;2023-03-01T00:08:40;-2.90;99.90
16846;DHT22;8539;53.188;8.696;2023-03-01T00:11:08;-3.10;99.90
16846;DHT22;8539;53.188;8.696;2023-03-01T00:13:36;-3.10;99.90
16846;DHT22;8539;53.188;8.696;2023-03-01T00:16:04;-3.10;99.90
16846;DHT22;8539;53.188;8.696;2023-03-01T00:18:31;-3.10;99.90
16846;DHT22;8539;53.188;8.696;2023-03-01T00:20:57;-3.10;99.90
16846;DHT22;8539;53.188;8.696;2023-03-01T00:23:23;-3.10;99.90
16846;DHT22;8539;53.188;8.696;2023-03-01T00:25:51;-3.20;99.90
16846;DHT22;8539;53.188;8.696;2023-03-01T00:28:17;-3.20;99.90
16846;DHT22;8539;53.188;8.696;2023-03-01T00:30:44;-3.20;99.90
16846;DHT22;8539;53.188;8.696;2023-03-01T00:33:10;-3.20;99.90
16846;DHT22;8539;53.188;8.696;2023-03-01T00:35:36;-3.20;99.90
16846;DHT22;8539;53.188;8.696;2023-03-01T00:38:03;-3.20;99.90
16846;DHT22;8539;53.188;8.696;2023-03-01T00:40:31;-3.20;99.90
16846;DHT22;8539;53.188;8.696;2023-03-01T00:42:58;-3.20;99.90
16846;DHT22;8539;53.188;8.696;2023-03-01T00:45:24;-3.20;99.90
16846;DHT22;8539;53.188;8.696;2023-03-01T00:47:51;-3.30;99.90
16846;DHT22;8539;53.188;8.696;2023-03-01T00:50:18;-3.30;99.90
16846;DHT22;8539;53.188;8.696;2023-03-01T00:52:45;-3.30;99.90
16846;DHT22;8539;53.188;8.696;2023-03-01T00:55:11;-3.30;99.90
16846;DHT22;8539;53.188;8.696;2023-03-01T00:57:38;-3.30;99.90
16846;DHT22;8539;53.188;8.696;2023-03-01T01:00:06;-3.30;99.90
16846;DHT22;8539;53.188;8.696;2023-03-01T01:02:33;-3.30;99.90
16846;DHT22;8539;53.188;8.696;2023-03-01T01:04:59;-3.30;99.90
16846;DHT22;8539;53.188;8.696;2023-03-01T01:07:26;-3.30;99.90
16846;DHT22;8539;53.188;8.696;2023-03-01T01:09:52;-3.30;99.90
16846;DHT22;8539;53.188;8.696;2023-03-01T01:12:18;-3.30;99.90
16846;DHT22;8539;53.188;8.696;2023-03-01T01:14:44;-3.40;99.90
16846;DHT22;8539;53.188;8.696;2023-03-01T01:17:10;-3.30;99.90
16846;DHT22;8539;53.188;8.696;2023-03-01T01:19:36;-3.40;99.90
16846;DHT22;8539;53.188;8.696;2023-03-01T01:22:02;-3.40;99.90
16846;DHT22;8539;53.188;8.696;2023-03-01T01:24:29;-3.40;99.90
16846;DHT22;8539;53.188;8.696;2023-03-01T01:26:55;-3.40;99.90
16846;DHT22;8539;53.188;8.696;2023-03-01T01:29:21;-3.40;99.90
16846;DHT22;8539;53.188;8.696;2023-03-01T01:31:48;-3.30;99.90
16846;DHT22;8539;53.188;8.696;2023-03-01T01:34:19;-3.40;99.90
16846;DHT22;8539;53.188;8.696;2023-03-01T01:36:50;-3.40;99.90
16846;DHT22;8539;53.188;8.696;2023-03-01T01:39:19;-3.40;99.90
16846;DHT22;8539;53.188;8.696;2023-03-01T01:41:46;-3.40;99.90
16846;DHT22;8539;53.188;8.696;2023-03-01T01:44:19;-3.50;99.90
16846;DHT22;8539;53.188;8.696;2023-03-01T01:51:42;-3.50;99.90
16846;DHT22;8539;53.188;8.696;2023-03-01T01:54:16;-3.50;99.90
16846;DHT22;8539;53.188;8.696;2023-03-01T01:56:50;-3.50;99.90
16846;DHT22;8539;53.188;8.696;2023-03-01T01:59:17;-3.50;99.90
16846;DHT22;8539;53.188;8.696;2023-03-01T02:01:43;-3.50;99.90
16846;DHT22;8539;53.188;8.696;2023-03-01T02:04:10;-3.50;99.90
16846;DHT22;8539;53.188;8.696;2023-03-01T02:06:39;-3.50;99.90
16846;DHT22;8539;53.188;8.696;2023-03-01T02:09:11;-3.50;99.90
16846;DHT22;8539;53.188;8.696;2023-03-01T02:11:38;-3.50;99.90
16846;DHT22;8539;53.188;8.696;2023-03-01T02:14:05;-3.50;99.90
16846;DHT22;8539;53.188;8.696;2023-03-01T02:16:32;-3.50;99.90
16846;DHT22;8539;53.188;8.696;2023-03-01T02:18:58;-3.50;99.90
16846;DHT22;8539;53.188;8.696;2023-03-01T02:24:24;-3.50;99.90
16846;DHT22;8539;53.188;8.696;2023-03-01T02:26:55;-2.90;99.90
16846;DHT22;8539;53.188;8.696;2023-03-01T02:29:26;-3.60;99.90
16846;DHT22;8539;53.188;8.696;2023-03-01T02:31:56;-3.50;99.90
16846;DHT22;8539;53.188;8.696;2023-03-01T02:34:24;-3.30;99.90
16846;DHT22;8539;53.188;8.696;2023-03-01T02:36:58;-3.60;99.90
16846;DHT22;8539;53.188;8.696;2023-03-01T02:39:42;-3.60;99.90
16846;DHT22;8539;53.188;8.696;2023-03-01T02:42:14;-3.60;99.90
16846;DHT22;8539;53.188;8.696;2023-03-01T02:44:41;-3.60;99.90
16846;DHT22;8539;53.188;8.696;2023-03-01T02:47:08;-3.60;99.90
16846;DHT22;8539;53.188;8.696;2023-03-01T02:49:36;-3.60;99.90
16846;DHT22;8539;53.188;8.696;2023-03-01T02:55:10;-3.60;99.90
16846;DHT22;8539;53.188;8.696;2023-03-01T02:57:40;-3.70;99.90
16846;DHT22;8539;53.188;8.696;2023-03-01T03:00:10;-3.70;99.90
16846;DHT22;8539;53.188;8.696;2023-03-01T03:02:36;-3.70;99.90
16846;DHT22;8539;53.188;8.696;2023-03-01T03:05:20;-3.70;99.90
16846;DHT22;8539;53.188;8.696;2023-03-01T03:07:48;-3.70;99.90
16846;DHT22;8539;53.188;8.696;2023-03-01T03:10:26;-3.70;99.90
16846;DHT22;8539;53.188;8.696;2023-03-01T03:12:55;-3.70;99.90
16846;DHT22;8539;53.188;8.696;2023-03-01T03:15:22;-3.70;99.90
16846;DHT22;8539;53.188;8.696;2023-03-01T03:17:50;-3.70;99.90
16846;DHT22;8539;53.188;8.696;2023-03-01T03:20:18;-3.80;99.90
16846;DHT22;8539;53.188;8.696;2023-03-01T03:22:47;-3.80;99.90
16846;DHT22;8539;53.188;8.696;2023-03-01T03:25:14;-3.80;99.90
16846;DHT22;8539;53.188;8.696;2023-03-01T03:27:42;-3.80;99.90
16846;DHT22;8539;53.188;8.696;2023-03-01T03:30:12;-3.80;99.90
16846;DHT22;8539;53.188;8.696;2023-03-01T03:32:41;-3.80;99.90
16846;DHT22;8539;53.188;8.696;2023-03-01T03:35:09;-3.70;99.90
16846;DHT22;8539;53.188;8.696;2023-03-01T03:37:37;-3.80;99.90
16846;DHT22;8539;53.188;8.696;2023-03-01T03:40:22;-3.80;99.90
16846;DHT22;8539;53.188;8.696;2023-03-01T03:42:48;-3.80;99.90
16846;DHT22;8539;53.188;8.696;2023-03-01T03:45:16;-3.80;99.90
16846;DHT22;8539;53.188;8.696;2023-03-01T03:47:42;-3.80;99.90
16846;DHT22;8539;53.188;8.696;2023-03-01T03:50:14;-3.80;99.90
16846;DHT22;8539;53.188;8.696;2023-03-01T03:52:41;-3.80;99.90
16846;DHT22;8539;53.188;8.696;2023-03-01T03:55:10;-3.90;99.90
16846;DHT22;8539;53.188;8.696;2023-03-01T03:57:37;-3.90;99.90
16846;DHT22;8539;53.188;8.696;2023-03-01T04:00:05;-3.70;99.90
16846;DHT22;8539;53.188;8.696;2023-03-01T04:02:33;-3.90;99.90
16846;DHT22;8539;53.188;8.696;2023-03-01T04:04:59;-3.90;99.90
16846;DHT22;8539;53.188;8.696;2023-03-01T04:07:25;-3.90;99.90
16846;DHT22;8539;53.188;8.696;2023-03-01T04:09:51;-3.90;99.90
16846;DHT22;8539;53.188;8.696;2023-03-01T04:12:17;-3.90;99.90
16846;DHT22;8539;53.188;8.696;2023-03-01T04:14:48;-3.90;99.90
16846;DHT22;8539;53.188;8.696;2023-03-01T04:17:14;-3.90;99.90
16846;DHT22;8539;53.188;8.696;2023-03-01T04:19:40;-3.90;99.90
16846;DHT22;8539;53.188;8.696;2023-03-01T04:22:09;-4.00;99.90
16846;DHT22;8539;53.188;8.696;2023-03-01T04:24:36;-3.90;99.90
16846;DHT22;8539;53.188;8.696;2023-03-01T04:27:03;-3.90;99.90
16846;DHT22;8539;53.188;8.696;2023-03-01T04:29:29;-3.90;99.90
16846;DHT22;8539;53.188;8.696;2023-03-01T04:31:55;-4.00;99.90
16846;DHT22;8539;53.188;8.696;2023-03-01T04:34:21;-4.00;99.90
16846;DHT22;8539;53.188;8.696;2023-03-01T04:36:47;-4.00;99.90
16846;DHT22;8539;53.188;8.696;2023-03-01T04:39:13;-3.80;99.90
16846;DHT22;8539;53.188;8.696;2023-03-01T04:41:39;-4.00;99.90
16846;DHT22;8539;53.188;8.696;2023-03-01T04:44:09;-3.90;99.90
16846;DHT22;8539;53.188;8.696;2023-03-01T04:46:35;-4.00;99.90
16846;DHT22;8539;53.188;8.696;2023-03-01T04:49:02;-4.00;99.90
16846;DHT22;8539;53.188;8.696;2023-03-01T04:51:29;-4.00;99.90
16846;DHT22;8539;53.188;8.696;2023-03-01T04:53:55;-4.00;99.90
16846;DHT22;8539;53.188;8.696;2023-03-01T04:56:21;-4.00;99.90
16846;DHT22;8539;53.188;8.696;2023-03-01T04:58:49;-4.00;99.90
16846;DHT22;8539;53.188;8.696;2023-03-01T05:01:17;-4.00;99.90
16846;DHT22;8539;53.188;8.696;2023-03-01T05:03:51;-4.10;99.90
16846;DHT22;8539;53.188;8.696;2023-03-01T05:06:18;-4.10;99.90
16846;DHT22;8539;53.188;8.696;2023-03-01T05:08:45;-4.10;99.90
16846;DHT22;8539;53.188;8.696;2023-03-01T05:11:11;-4.10;99.90
16846;DHT22;8539;53.188;8.696;2023-03-01T05:13:38;-4.10;99.90
16846;DHT22;8539;53.188;8.696;2023-03-01T05:16:06;-4.00;99.90
16846;DHT22;8539;53.188;8.696;2023-03-01T05:18:36;-4.10;99.90
16846;DHT22;8539;53.188;8.696;2023-03-01T05:21:06;-4.10;99.90
16846;DHT22;8539;53.188;8.696;2023-03-01T05:23:33;-4.10;99.90
16846;DHT22;8539;53.188;8.696;2023-03-01T05:26:01;-4.10;99.90
16846;DHT22;8539;53.188;8.696;2023-03-01T05:28:28;-3.50;99.90
16846;DHT22;8539;53.188;8.696;2023-03-01T05:30:55;-4.10;99.90
16846;DHT22;8539;53.188;8.696;2023-03-01T05:33:21;-4.10;99.90
16846;DHT22;8539;53.188;8.696;2023-03-01T05:35:48;-4.10;99.90
16846;DHT22;8539;53.188;8.696;2023-03-01T05:38:15;-4.10;99.90
16846;DHT22;8539;53.188;8.696;2023-03-01T05:40:43;-4.10;99.90
16846;DHT22;8539;53.188;8.696;2023-03-01T05:43:10;-4.10;99.90
16846;DHT22;8539;53.188;8.696;2023-03-01T05:45:38;-4.10;99.90
16846;DHT22;8539;53.188;8.696;2023-03-01T05:48:05;-4.20;99.90
16846;DHT22;8539;53.188;8.696;2023-03-01T05:50:45;-4.20;99.90
16846;DHT22;8539;53.188;8.696;2023-03-01T05:53:14;-4.00;99.90
16846;DHT22;8539;53.188;8.696;2023-03-01T05:55:41;-4.20;99.90
16846;DHT22;8539;53.188;8.696;2023-03-01T05:58:11;-4.20;99.90
16846;DHT22;8539;53.188;8.696;2023-03-01T06:00:37;-4.10;99.90
16846;DHT22;8539;53.188;8.696;2023-03-01T06:03:03;-4.10;99.90
16846;DHT22;8539;53.188;8.696;2023-03-01T06:05:29;-4.10;99.90
16846;DHT22;8539;53.188;8.696;2023-03-01T06:07:59;-4.00;99.90
16846;DHT22;8539;53.188;8.696;2023-03-01T06:10:25;-4.10;99.90
16846;DHT22;8539;53.188;8.696;2023-03-01T06:12:51;-4.10;99.90
16846;DHT22;8539;53.188;8.696;2023-03-01T06:15:18;-4.10;99.90
16846;DHT22;8539;53.188;8.696;2023-03-01T06:17:45;-4.10;99.90
16846;DHT22;8539;53.188;8.696;2023-03-01T06:20:22;-4.10;99.90
16846;DHT22;8539;53.188;8.696;2023-03-01T06:22:48;-4.10;99.90
16846;DHT22;8539;53.188;8.696;2023-03-01T06:25:17;-4.10;99.90
16846;DHT22;8539;53.188;8.696;2023-03-01T06:27:44;-4.10;99.90
16846;DHT22;8539;53.188;8.696;2023-03-01T06:30:13;-4.10;99.90
16846;DHT22;8539;53.188;8.696;2023-03-01T06:32:40;-4.10;99.90
16846;DHT22;8539;53.188;8.696;2023-03-01T06:35:12;-4.10;99.90
16846;DHT22;8539;53.188;8.696;2023-03-01T06:37:40;-4.00;99.90
16846;DHT22;8539;53.188;8.696;2023-03-01T06:40:08;-4.00;99.90
16846;DHT22;8539;53.188;8.696;2023-03-01T06:42:38;-4.00;99.90
16846;DHT22;8539;53.188;8.696;2023-03-01T06:45:05;-4.00;99.90
16846;DHT22;8539;53.188;8.696;2023-03-01T06:47:32;-3.90;99.90
16846;DHT22;8539;53.188;8.696;2023-03-01T06:49:59;-3.80;99.90
16846;DHT22;8539;53.188;8.696;2023-03-01T06:52:26;-3.80;99.90
16846;DHT22;8539;53.188;8.696;2023-03-01T06:54:52;-3.70;99.90
16846;DHT22;8539;53.188;8.696;2023-03-01T06:57:18;-3.70;99.90
16846;DHT22;8539;53.188;8.696;2023-03-01T06:59:44;-3.60;99.90
16846;DHT22;8539;53.188;8.696;2023-03-01T07:02:11;-3.50;99.90
16846;DHT22;8539;53.188;8.696;2023-03-01T07:04:38;-3.50;99.90
16846;DHT22;8539;53.188;8.696;2023-03-01T07:07:05;-3.40;99.90
16846;DHT22;8539;53.188;8.696;2023-03-01T07:09:31;-3.30;99.90
16846;DHT22;8539;53.188;8.696;2023-03-01T07:11:57;-3.30;99.90
16846;DHT22;8539;53.188;8.696;2023-03-01T07:14:24;-2.40;99.90
16846;DHT22;8539;53.188;8.696;2023-03-01T07:16:54;-3.10;99.90
16846;DHT22;8539;53.188;8.696;2023-03-01T07:19:21;-3.00;99.90
16846;DHT22;8539;53.188;8.696;2023-03-01T07:21:47;-2.90;99.90
16846;DHT22;8539;53.188;8.696;2023-03-01T07:24:14;-2.80;99.90
16846;DHT22;8539;53.188;8.696;2023-03-01T07:26:40;-2.70;99.90
16846;DHT22;8539;53.188;8.696;2023-03-01T07:29:07;-2.60;99.90
16846;DHT22;8539;53.188;8.696;2023-03-01T07:31:33;-2.50;99.90
16846;DHT22;8539;53.188;8.696;2023-03-01T07:34:00;-2.40;99.90
16846;DHT22;8539;53.188;8.696;2023-03-01T07:36:26;-2.30;99.90
16846;DHT22;8539;53.188;8.696;2023-03-01T07:38:52;-2.10;99.90
16846;DHT22;8539;53.188;8.696;2023-03-01T07:41:18;-2.00;99.90
16846;DHT22;8539;53.188;8.696;2023-03-01T07:43:44;-1.90;99.90
16846;DHT22;8539;53.188;8.696;2023-03-01T07:46:10;-1.80;99.90
16846;DHT22;8539;53.188;8.696;2023-03-01T07:48:36;-1.70;99.90
16846;DHT22;8539;53.188;8.696;2023-03-01T07:51:04;-1.60;99.90
16846;DHT22;8539;53.188;8.696;2023-03-01T07:53:31;-1.50;99.90
16846;DHT22;8539;53.188;8.696;2023-03-01T07:58:33;-1.30;99.90
16846;DHT22;8539;53.188;8.696;2023-03-01T08:01:04;-1.00;99.90
16846;DHT22;8539;53.188;8.696;2023-03-01T08:03:31;-0.90;99.90
16846;DHT22;8539;53.188;8.696;2023-03-01T08:05:59;-0.60;99.90
16846;DHT22;8539;53.188;8.696;2023-03-01T08:08:26;-0.40;99.90
16846;DHT22;8539;53.188;8.696;2023-03-01T08:10:52;-0.20;99.90
16846;DHT22;8539;53.188;8.696;2023-03-01T08:13:21;0.00;99.90
16846;DHT22;8539;53.188;8.696;2023-03-01T08:15:51;0.10;99.90
16846;DHT22;8539;53.188;8.696;2023-03-01T08:18:18;0.20;99.90
16846;DHT22;8539;53.188;8.696;2023-03-01T08:20:45;0.40;99.90
16846;DHT22;8539;53.188;8.696;2023-03-01T08:23:12;0.50;99.90
16846;DHT22;8539;53.188;8.696;2023-03-01T08:25:38;0.60;99.90
16846;DHT22;8539;53.188;8.696;2023-03-01T08:28:05;0.80;99.90
16846;DHT22;8539;53.188;8.696;2023-03-01T08:30:31;0.90;99.90
16846;DHT22;8539;53.188;8.696;2023-03-01T08:32:57;1.00;99.90
16846;DHT22;8539;53.188;8.696;2023-03-01T08:35:23;1.20;99.90
16846;DHT22;8539;53.188;8.696;2023-03-01T08:37:49;1.30;99.90
16846;DHT22;8539;53.188;8.696;2023-03-01T08:40:16;1.40;99.90
16846;DHT22;8539;53.188;8.696;2023-03-01T08:42:42;1.70;99.90
16846;DHT22;8539;53.188;8.696;2023-03-01T08:45:09;1.90;99.90
16846;DHT22;8539;53.188;8.696;2023-03-01T08:47:36;1.90;99.90
16846;DHT22;8539;53.188;8.696;2023-03-01T08:50:03;2.10;99.90
16846;DHT22;8539;53.188;8.696;2023-03-01T08:52:29;2.20;99.90
16846;DHT22;8539;53.188;8.696;2023-03-01T08:54:56;2.40;99.90
16846;DHT22;8539;53.188;8.696;2023-03-01T08:57:22;2.50;99.90
16846;DHT22;8539;53.188;8.696;2023-03-01T08:59:50;2.60;99.90
16846;DHT22;8539;53.188;8.696;2023-03-01T09:02:18;2.80;99.90
16846;DHT22;8539;53.188;8.696;2023-03-01T09:04:44;2.90;99.90
16846;DHT22;8539;53.188;8.696;2023-03-01T09:07:11;3.10;99.90
16846;DHT22;8539;53.188;8.696;2023-03-01T09:09:37;3.30;99.90
16846;DHT22;8539;53.188;8.696;2023-03-01T09:12:03;3.50;99.90
16846;DHT22;8539;53.188;8.696;2023-03-01T09:14:30;3.70;99.90
16846;DHT22;8539;53.188;8.696;2023-03-01T09:16:56;3.80;99.90
16846;DHT22;8539;53.188;8.696;2023-03-01T09:19:23;4.00;99.90
16846;DHT22;8539;53.188;8.696;2023-03-01T09:21:49;4.10;99.90
16846;DHT22;8539;53.188;8.696;2023-03-01T09:24:20;4.10;99.90
16846;DHT22;8539;53.188;8.696;2023-03-01T09:26:47;4.40;99.90
16846;DHT22;8539;53.188;8.696;2023-03-01T09:29:14;4.50;99.90
16846;DHT22;8539;53.188;8.696;2023-03-01T09:31:41;4.80;99.90
16846;DHT22;8539;53.188;8.696;2023-03-01T09:34:10;4.90;99.90
16846;DHT22;8539;53.188;8.696;2023-03-01T09:36:37;5.00;99.90
16846;DHT22;8539;53.188;8.696;2023-03-01T09:39:03;5.10;99.90
16846;DHT22;8539;53.188;8.696;2023-03-01T09:42:03;5.20;99.90
16846;DHT22;8539;53.188;8.696;2023-03-01T09:44:37;5.30;99.90
16846;DHT22;8539;53.188;8.696;2023-03-01T09:47:03;5.50;99.90
16846;DHT22;8539;53.188;8.696;2023-03-01T09:49:39;5.80;99.90
16846;DHT22;8539;53.188;8.696;2023-03-01T09:54:55;6.40;99.90
16846;DHT22;8539;53.188;8.696;2023-03-01T10:00:09;7.10;99.90
16846;DHT22;8539;53.188;8.696;2023-03-01T10:05:37;7.70;99.90
16846;DHT22;8539;53.188;8.696;2023-03-01T10:10:40;7.80;99.90
16846;DHT22;8539;53.188;8.696;2023-03-01T10:13:17;7.80;99.90
16846;DHT22;8539;53.188;8.696;2023-03-01T10:15:50;7.80;99.90
16846;DHT22;8539;53.188;8.696;2023-03-01T10:18:26;8.10;99.90
16846;DHT22;8539;53.188;8.696;2023-03-01T10:21:00;8.60;99.90
16846;DHT22;8539;53.188;8.696;2023-03-01T10:23:28;9.00;99.90
16846;DHT22;8539;53.188;8.696;2023-03-01T10:26:15;9.20;99.90
16846;DHT22;8539;53.188;8.696;2023-03-01T10:31:15;9.00;99.90
16846;DHT22;8539;53.188;8.696;2023-03-01T10:33:44;8.90;99.90
16846;DHT22;8539;53.188;8.696;2023-03-01T10:36:10;8.80;99.90
16846;DHT22;8539;53.188;8.696;2023-03-01T10:38:54;8.80;99.90
16846;DHT22;8539;53.188;8.696;2023-03-01T10:41:26;8.80;99.90
16846;DHT22;8539;53.188;8.696;2023-03-01T10:43:58;8.90;99.90
16846;DHT22;8539;53.188;8.696;2023-03-01T10:46:31;9.00;99.90
16846;DHT22;8539;53.188;8.696;2023-03-01T10:49:15;9.20;99.90
16846;DHT22;8539;53.188;8.696;2023-03-01T10:51:44;9.60;99.90
16846;DHT22;8539;53.188;8.696;2023-03-01T10:56:50;10.20;99.90
16846;DHT22;8539;53.188;8.696;2023-03-01T10:59:27;10.50;99.90
16846;DHT22;8539;53.188;8.696;2023-03-01T11:02:16;10.60;99.90
16846;DHT22;8539;53.188;8.696;2023-03-01T11:05:02;10.40;99.90
16846;DHT22;8539;53.188;8.696;2023-03-01T11:07:53;10.00;99.90
16846;DHT22;8539;53.188;8.696;2023-03-01T11:10:35;9.30;99.90
16846;DHT22;8539;53.188;8.696;2023-03-01T11:13:14;9.00;99.90
16846;DHT22;8539;53.188;8.696;2023-03-01T11:15:41;9.00;99.90
16846;DHT22;8539;53.188;8.696;2023-03-01T11:18:26;8.90;99.90
16846;DHT22;8539;53.188;8.696;2023-03-01T11:20:55;8.70;99.90
16846;DHT22;8539;53.188;8.696;2023-03-01T11:23:22;8.80;99.90
16846;DHT22;8539;53.188;8.696;2023-03-01T11:25:55;8.80;99.90
16846;DHT22;8539;53.188;8.696;2023-03-01T11:28:22;9.00;99.90
16846;DHT22;8539;53.188;8.696;2023-03-01T11:31:09;9.20;99.90
16846;DHT22;8539;53.188;8.696;2023-03-01T11:33:58;9.30;99.90
16846;DHT22;8539;53.188;8.696;2023-03-01T11:37:07;9.30;99.90
16846;DHT22;8539;53.188;8.696;2023-03-01T11:39:37;9.30;99.90
16846;DHT22;8539;53.188;8.696;2023-03-01T11:44:54;9.30;99.90
16846;DHT22;8539;53.188;8.696;2023-03-01T11:50:28;9.10;99.90
16846;DHT22;8539;53.188;8.696;2023-03-01T12:12:58;10.50;99.90
16846;DHT22;8539;53.188;8.696;2023-03-01T12:15:36;10.50;99.90
16846;DHT22;8539;53.188;8.696;2023-03-01T12:33:02;9.80;99.90
16846;DHT22;8539;53.188;8.696;2023-03-01T12:46:21;8.70;99.90
16846;DHT22;8539;53.188;8.696;2023-03-01T12:49:05;8.50;99.90
16846;DHT22;8539;53.188;8.696;2023-03-01T12:51:35;8.40;99.90
16846;DHT22;8539;53.188;8.696;2023-03-01T12:54:15;8.50;99.90
16846;DHT22;8539;53.188;8.696;2023-03-01T12:56:42;8.70;99.90
16846;DHT22;8539;53.188;8.696;2023-03-01T12:59:48;8.90;99.90
16846;DHT22;8539;53.188;8.696;2023-03-01T13:02:24;9.20;99.90
16846;DHT22;8539;53.188;8.696;2023-03-01T13:05:19;9.50;99.90
16846;DHT22;8539;53.188;8.696;2023-03-01T13:08:16;9.60;99.90
16846;DHT22;8539;53.188;8.696;2023-03-01T13:10:48;9.90;99.90
16846;DHT22;8539;53.188;8.696;2023-03-01T13:13:21;10.00;99.90
16846;DHT22;8539;53.188;8.696;2023-03-01T13:15:47;10.20;99.90
16846;DHT22;8539;53.188;8.696;2023-03-01T13:20:49;10.60;99.90
16846;DHT22;8539;53.188;8.696;2023-03-01T13:28:55;11.00;99.90
16846;DHT22;8539;53.188;8.696;2023-03-01T13:44:32;11.10;99.90
16846;DHT22;8539;53.188;8.696;2023-03-01T13:49:52;11.30;99.90
16846;DHT22;8539;53.188;8.696;2023-03-01T13:55:13;11.40;99.90
16846;DHT22;8539;53.188;8.696;2023-03-01T13:57:48;11.30;99.90
16846;DHT22;8539;53.188;8.696;2023-03-01T14:00:38;11.20;99.90
16846;DHT22;8539;53.188;8.696;2023-03-01T14:05:44;11.20;99.90
16846;DHT22;8539;53.188;8.696;2023-03-01T14:08:24;11.00;99.90
16846;DHT22;8539;53.188;8.696;2023-03-01T14:19:54;10.80;99.90
16846;DHT22;8539;53.188;8.696;2023-03-01T14:22:29;10.80;99.90
16846;DHT22;8539;53.188;8.696;2023-03-01T14:25:06;10.80;99.90
16846;DHT22;8539;53.188;8.696;2023-03-01T14:27:42;10.80;99.90
16846;DHT22;8539;53.188;8.696;2023-03-01T14:30:15;10.90;99.90
16846;DHT22;8539;53.188;8.696;2023-03-01T14:32:58;11.00;99.90
16846;DHT22;8539;53.188;8.696;2023-03-01T14:35:28;11.00;99.90
16846;DHT22;8539;53.188;8.696;2023-03-01T14:37:54;10.90;99.90
16846;DHT22;8539;53.188;8.696;2023-03-01T14:40:23;10.60;99.90
16846;DHT22;8539;53.188;8.696;2023-03-01T14:42:50;10.50;99.90
16846;DHT22;8539;53.188;8.696;2023-03-01T14:45:16;10.40;99.90
16846;DHT22;8539;53.188;8.696;2023-03-01T14:47:44;10.20;99.90
16846;DHT22;8539;53.188;8.696;2023-03-01T14:50:22;10.00;99.90
16846;DHT22;8539;53.188;8.696;2023-03-01T14:52:54;9.90;99.90
16846;DHT22;8539;53.188;8.696;2023-03-01T14:55:34;9.90;99.90
16846;DHT22;8539;53.188;8.696;2023-03-01T14:58:08;9.90;99.90
16846;DHT22;8539;53.188;8.696;2023-03-01T15:00:35;9.90;99.90
16846;DHT22;8539;53.188;8.696;2023-03-01T15:03:12;9.80;99.90
16846;DHT22;8539;53.188;8.696;2023-03-01T15:05:41;9.80;99.90
16846;DHT22;8539;53.188;8.696;2023-03-01T15:08:19;9.90;99.90
16846;DHT22;8539;53.188;8.696;2023-03-01T15:13:33;10.00;99.90
16846;DHT22;8539;53.188;8.696;2023-03-01T15:16:15;10.00;99.90
16846;DHT22;8539;53.188;8.696;2023-03-01T15:18:51;10.00;99.90
16846;DHT22;8539;53.188;8.696;2023-03-01T15:21:25;9.80;99.90
16846;DHT22;8539;53.188;8.696;2023-03-01T15:23:57;9.60;99.90
16846;DHT22;8539;53.188;8.696;2023-03-01T15:29:58;9.30;99.90
16846;DHT22;8539;53.188;8.696;2023-03-01T15:32:35;9.40;99.90
16846;DHT22;8539;53.188;8.696;2023-03-01T15:35:40;9.20;99.90
16846;DHT22;8539;53.188;8.696;2023-03-01T15:40:57;9.10;99.90
16846;DHT22;8539;53.188;8.696;2023-03-01T15:43:42;9.00;99.90
16846;DHT22;8539;53.188;8.696;2023-03-01T15:46:31;9.00;99.90
16846;DHT22;8539;53.188;8.696;2023-03-01T15:49:19;8.90;99.90
16846;DHT22;8539;53.188;8.696;2023-03-01T15:51:54;8.90;99.90
16846;DHT22;8539;53.188;8.696;2023-03-01T15:54:22;8.70;99.90
16846;DHT22;8539;53.188;8.696;2023-03-01T15:56:48;8.70;99.90
16846;DHT22;8539;53.188;8.696;2023-03-01T15:59:14;8.60;99.90
16846;DHT22;8539;53.188;8.696;2023-03-01T16:01:41;8.60;99.90
16846;DHT22;8539;53.188;8.696;2023-03-01T16:04:10;8.50;99.90
16846;DHT22;8539;53.188;8.696;2023-03-01T16:06:39;8.40;99.90
16846;DHT22;8539;53.188;8.696;2023-03-01T16:09:05;8.30;99.90
16846;DHT22;8539;53.188;8.696;2023-03-01T16:11:31;8.30;99.90
16846;DHT22;8539;53.188;8.696;2023-03-01T16:13:58;8.20;99.90
16846;DHT22;8539;53.188;8.696;2023-03-01T16:16:24;8.10;99.90
16846;DHT22;8539;53.188;8.696;2023-03-01T16:18:50;8.00;99.90
16846;DHT22;8539;53.188;8.696;2023-03-01T16:21:20;7.90;99.90
16846;DHT22;8539;53.188;8.696;2023-03-01T16:23:47;7.80;99.90
16846;DHT22;8539;53.188;8.696;2023-03-01T16:26:13;7.80;99.90
16846;DHT22;8539;53.188;8.696;2023-03-01T16:28:41;7.70;99.90
16846;DHT22;8539;53.188;8.696;2023-03-01T16:31:08;7.60;99.90
16846;DHT22;8539;53.188;8.696;2023-03-01T16:33:35;7.60;99.90
16846;DHT22;8539;53.188;8.696;2023-03-01T16:36:07;7.40;99.90
16846;DHT22;8539;53.188;8.696;2023-03-01T16:38:33;7.30;99.90
16846;DHT22;8539;53.188;8.696;2023-03-01T16:41:00;7.20;99.90
16846;DHT22;8539;53.188;8.696;2023-03-01T16:43:26;7.10;99.90
16846;DHT22;8539;53.188;8.696;2023-03-01T16:45:53;7.00;99.90
16846;DHT22;8539;53.188;8.696;2023-03-01T16:48:19;6.80;99.90
16846;DHT22;8539;53.188;8.696;2023-03-01T16:50:45;6.80;99.90
16846;DHT22;8539;53.188;8.696;2023-03-01T16:53:11;6.70;99.90
16846;DHT22;8539;53.188;8.696;2023-03-01T16:55:37;6.50;99.90
16846;DHT22;8539;53.188;8.696;2023-03-01T16:58:10;6.40;99.90
16846;DHT22;8539;53.188;8.696;2023-03-01T17:00:36;6.20;99.90
16846;DHT22;8539;53.188;8.696;2023-03-01T17:03:03;6.00;99.90
16846;DHT22;8539;53.188;8.696;2023-03-01T17:05:29;6.00;99.90
16846;DHT22;8539;53.188;8.696;2023-03-01T17:07:55;6.00;99.90
16846;DHT22;8539;53.188;8.696;2023-03-01T17:10:23;5.90;99.90
16846;DHT22;8539;53.188;8.696;2023-03-01T17:12:49;5.80;99.90
16846;DHT22;8539;53.188;8.696;2023-03-01T17:15:16;5.80;99.90
16846;DHT22;8539;53.188;8.696;2023-03-01T17:17:42;5.70;99.90
16846;DHT22;8539;53.188;8.696;2023-03-01T17:20:09;5.60;99.90
16846;DHT22;8539;53.188;8.696;2023-03-01T17:22:35;5.50;99.90
16846;DHT22;8539;53.188;8.696;2023-03-01T17:25:01;5.40;99.90
16846;DHT22;8539;53.188;8.696;2023-03-01T17:27:28;5.30;99.90
16846;DHT22;8539;53.188;8.696;2023-03-01T17:29:54;5.40;99.90
16846;DHT22;8539;53.188;8.696;2023-03-01T17:32:20;5.30;99.90
16846;DHT22;8539;53.188;8.696;2023-03-01T17:34:46;5.20;99.90
16846;DHT22;8539;53.188;8.696;2023-03-01T17:37:12;5.20;99.90
16846;DHT22;8539;53.188;8.696;2023-03-01T17:39:38;5.10;99.90
16846;DHT22;8539;53.188;8.696;2023-03-01T17:42:04;5.10;99.90
16846;DHT22;8539;53.188;8.696;2023-03-01T17:44:32;4.90;99.90
16846;DHT22;8539;53.188;8.696;2023-03-01T17:47:00;4.90;99.90
16846;DHT22;8539;53.188;8.696;2023-03-01T17:49:26;4.80;99.90
16846;DHT22;8539;53.188;8.696;2023-03-01T17:51:52;4.70;99.90
16846;DHT22;8539;53.188;8.696;2023-03-01T17:54:18;4.70;99.90
16846;DHT22;8539;53.188;8.696;2023-03-01T17:56:44;4.60;99.90
16846;DHT22;8539;53.188;8.696;2023-03-01T17:59:11;4.50;99.90
16846;DHT22;8539;53.188;8.696;2023-03-01T18:01:40;4.40;99.90
16846;DHT22;8539;53.188;8.696;2023-03-01T18:04:07;4.40;99.90
16846;DHT22;8539;53.188;8.696;2023-03-01T18:06:35;4.30;99.90
16846;DHT22;8539;53.188;8.696;2023-03-01T18:09:01;4.30;99.90
16846;DHT22;8539;53.188;8.696;2023-03-01T18:11:28;4.20;99.90
16846;DHT22;8539;53.188;8.696;2023-03-01T18:13:54;4.20;99.90
16846;DHT22;8539;53.188;8.696;2023-03-01T18:16:21;4.20;99.90